sensor_id;sensor_type;location;lat;lon;timestamp;P1;durP1;ratioP1;P2;durP2;ratioP2
22070;SDS011;11200;51.488;6.668;2022-12-18T00:01:16;18.20;;;11.18;;
22070;SDS011;11200;51.488;6.668;2022-12-18T00:03:46;17.20;;;11.18;;
22070;SDS011;11200;51.488;6.668;2022-12-18T00:06:12;18.23;;;11.77;;
22070;SDS011;11200;51.488;6.668;2022-12-18T00:08:38;18.85;;;11.52;;
22070;SDS011;11200;51.488;6.668;2022-12-18T00:11:05;18.90;;;11.35;;
22070;SDS011;11200;51.488;6.668;2022-12-18T00:13:32;17.73;;;11.55;;
22070;SDS011;11200;51.488;6.668;2022-12-18T00:16:01;17.40;;;11.35;;
22070;SDS011;11200;51.488;6.668;2022-12-18T00:18:28;18.20;;;11.63;;
22070;SDS011;11200;51.488;6.668;2022-12-18T00:20:57;16.45;;;11.00;;
22070;SDS011;11200;51.488;6.668;2022-12-18T00:23:24;17.15;;;11.10;;
22070;SDS011;11200;51.488;6.668;2022-12-18T00:25:49;17.20;;;11.00;;
22070;SDS011;11200;51.488;6.668;2022-12-18T00:28:15;18.30;;;10.82;;
22070;SDS011;11200;51.488;6.668;2022-12-18T00:30:40;15.77;;;10.65;;
22070;SDS011;11200;51.488;6.668;2022-12-18T00:33:06;18.58;;;10.80;;
22070;SDS011;11200;51.488;6.668;2022-12-18T00:35:31;15.73;;;10.18;;
22070;SDS011;11200;51.488;6.668;2022-12-18T00:37:57;16.73;;;10.27;;
22070;SDS011;11200;51.488;6.668;2022-12-18T00:40:22;16.48;;;10.57;;
22070;SDS011;11200;51.488;6.668;2022-12-18T00:42:48;16.33;;;10.40;;
22070;SDS011;11200;51.488;6.668;2022-12-18T00:45:23;15.60;;;10.27;;
22070;SDS011;11200;51.488;6.668;2022-12-18T00:47:50;15.60;;;9.57;;
22070;SDS011;11200;51.488;6.668;2022-12-18T00:50:16;14.85;;;9.70;;
22070;SDS011;11200;51.488;6.668;2022-12-18T00:52:42;15.68;;;10.43;;
22070;SDS011;11200;51.488;6.668;2022-12-18T00:55:08;17.15;;;10.40;;
22070;SDS011;11200;51.488;6.668;2022-12-18T00:57:34;14.02;;;9.48;;
22070;SDS011;11200;51.488;6.668;2022-12-18T01:00:00;15.95;;;10.10;;
22070;SDS011;11200;51.488;6.668;2022-12-18T01:02:26;15.88;;;9.77;;
22070;SDS011;11200;51.488;6.668;2022-12-18T01:04:52;15.07;;;9.27;;
22070;SDS011;11200;51.488;6.668;2022-12-18T01:07:19;13.73;;;9.05;;
22070;SDS011;11200;51.488;6.668;2022-12-18T01:09:44;15.65;;;9.70;;
22070;SDS011;11200;51.488;6.668;2022-12-18T01:12:10;14.63;;;9.45;;
22070;SDS011;11200;51.488;6.668;2022-12-18T01:14:36;13.27;;;8.85;;
22070;SDS011;11200;51.488;6.668;2022-12-18T01:17:03;13.77;;;9.43;;
22070;SDS011;11200;51.488;6.668;2022-12-18T01:19:29;14.80;;;8.98;;
22070;SDS011;11200;51.488;6.668;2022-12-18T01:21:54;16.35;;;9.52;;
22070;SDS011;11200;51.488;6.668;2022-12-18T01:24:20;14.30;;;9.27;;
22070;SDS011;11200;51.488;6.668;2022-12-18T01:26:45;13.63;;;8.80;;
22070;SDS011;11200;51.488;6.668;2022-12-18T01:29:11;13.00;;;8.73;;
22070;SDS011;11200;51.488;6.668;2022-12-18T01:31:37;13.75;;;8.43;;
22070;SDS011;11200;51.488;6.668;2022-12-18T01:34:03;13.85;;;8.88;;
22070;SDS011;11200;51.488;6.668;2022-12-18T01:36:31;13.57;;;8.75;;
22070;SDS011;11200;51.488;6.668;2022-12-18T01:39:02;11.43;;;8.43;;
22070;SDS011;11200;51.488;6.668;2022-12-18T01:41:32;13.48;;;8.45;;
22070;SDS011;11200;51.488;6.668;2022-12-18T01:47:34;12.73;;;8.40;;
22070;SDS011;11200;51.488;6.668;2022-12-18T01:52:54;12.20;;;8.13;;
22070;SDS011;11200;51.488;6.668;2022-12-18T01:55:23;12.82;;;8.45;;
22070;SDS011;11200;51.488;6.668;2022-12-18T01:57:52;11.25;;;8.20;;
22070;SDS011;11200;51.488;6.668;2022-12-18T02:00:21;11.30;;;7.95;;
22070;SDS011;11200;51.488;6.668;2022-12-18T02:02:48;11.30;;;8.00;;
22070;SDS011;11200;51.488;6.668;2022-12-18T02:05:15;12.13;;;7.75;;
22070;SDS011;11200;51.488;6.668;2022-12-18T02:13:05;13.77;;;8.75;;
22070;SDS011;11200;51.488;6.668;2022-12-18T02:16:05;11.30;;;7.82;;
22070;SDS011;11200;51.488;6.668;2022-12-18T02:18:59;11.90;;;7.70;;
22070;SDS011;11200;51.488;6.668;2022-12-18T02:26:53;11.63;;;7.68;;
22070;SDS011;11200;51.488;6.668;2022-12-18T02:32:30;11.55;;;7.72;;
22070;SDS011;11200;51.488;6.668;2022-12-18T02:34:59;12.23;;;8.05;;
22070;SDS011;11200;51.488;6.668;2022-12-18T02:37:29;11.45;;;7.32;;
22070;SDS011;11200;51.488;6.668;2022-12-18T02:39:56;13.63;;;7.78;;
22070;SDS011;11200;51.488;6.668;2022-12-18T02:42:23;11.52;;;8.10;;
22070;SDS011;11200;51.488;6.668;2022-12-18T02:44:50;11.13;;;7.55;;
22070;SDS011;11200;51.488;6.668;2022-12-18T02:47:17;11.85;;;7.80;;
22070;SDS011;11200;51.488;6.668;2022-12-18T02:49:59;12.00;;;7.72;;
22070;SDS011;11200;51.488;6.668;2022-12-18T02:53:22;11.73;;;7.68;;
22070;SDS011;11200;51.488;6.668;2022-12-18T02:55:39;12.05;;;7.95;;
22070;SDS011;11200;51.488;6.668;2022-12-18T02:58:26;12.82;;;7.97;;
22070;SDS011;11200;51.488;6.668;2022-12-18T03:03:42;12.48;;;7.65;;
22070;SDS011;11200;51.488;6.668;2022-12-18T03:06:23;12.18;;;7.55;;
22070;SDS011;11200;51.488;6.668;2022-12-18T03:09:07;11.52;;;7.43;;
22070;SDS011;11200;51.488;6.668;2022-12-18T03:11:38;13.27;;;8.23;;
22070;SDS011;11200;51.488;6.668;2022-12-18T03:14:28;13.73;;;8.10;;
22070;SDS011;11200;51.488;6.668;2022-12-18T03:16:57;12.18;;;7.90;;
22070;SDS011;11200;51.488;6.668;2022-12-18T03:19:27;10.40;;;7.50;;
22070;SDS011;11200;51.488;6.668;2022-12-18T03:21:57;11.98;;;7.30;;
22070;SDS011;11200;51.488;6.668;2022-12-18T03:24:26;9.43;;;6.70;;
22070;SDS011;11200;51.488;6.668;2022-12-18T03:26:57;12.30;;;7.78;;
22070;SDS011;11200;51.488;6.668;2022-12-18T03:29:33;12.23;;;7.88;;
22070;SDS011;11200;51.488;6.668;2022-12-18T03:32:02;10.60;;;7.20;;
22070;SDS011;11200;51.488;6.668;2022-12-18T03:34:37;11.98;;;7.45;;
22070;SDS011;11200;51.488;6.668;2022-12-18T03:37:05;11.20;;;7.20;;
22070;SDS011;11200;51.488;6.668;2022-12-18T03:39:32;12.30;;;7.75;;
22070;SDS011;11200;51.488;6.668;2022-12-18T03:42:01;11.30;;;7.75;;
22070;SDS011;11200;51.488;6.668;2022-12-18T03:44:45;10.40;;;7.43;;
22070;SDS011;11200;51.488;6.668;2022-12-18T03:47:34;11.60;;;7.60;;
22070;SDS011;11200;51.488;6.668;2022-12-18T03:50:20;11.75;;;7.78;;
22070;SDS011;11200;51.488;6.668;2022-12-18T03:52:54;11.82;;;7.35;;
22070;SDS011;11200;51.488;6.668;2022-12-18T03:55:25;12.70;;;7.50;;
22070;SDS011;11200;51.488;6.668;2022-12-18T03:57:55;12.55;;;7.95;;
22070;SDS011;11200;51.488;6.668;2022-12-18T04:00:22;12.15;;;7.45;;
22070;SDS011;11200;51.488;6.668;2022-12-18T04:02:52;12.52;;;7.75;;
22070;SDS011;11200;51.488;6.668;2022-12-18T04:05:20;10.48;;;7.60;;
22070;SDS011;11200;51.488;6.668;2022-12-18T04:07:47;12.10;;;8.02;;
22070;SDS011;11200;51.488;6.668;2022-12-18T04:10:16;11.85;;;7.00;;
22070;SDS011;11200;51.488;6.668;2022-12-18T04:12:42;12.77;;;8.05;;
22070;SDS011;11200;51.488;6.668;2022-12-18T04:15:08;12.05;;;7.65;;
22070;SDS011;11200;51.488;6.668;2022-12-18T04:17:35;12.15;;;7.68;;
22070;SDS011;11200;51.488;6.668;2022-12-18T04:20:00;11.88;;;7.75;;
22070;SDS011;11200;51.488;6.668;2022-12-18T04:22:26;11.48;;;7.78;;
22070;SDS011;11200;51.488;6.668;2022-12-18T04:24:51;13.23;;;8.00;;
22070;SDS011;11200;51.488;6.668;2022-12-18T04:27:17;13.23;;;8.00;;
22070;SDS011;11200;51.488;6.668;2022-12-18T04:29:43;11.00;;;7.32;;
22070;SDS011;11200;51.488;6.668;2022-12-18T04:32:08;12.07;;;7.28;;
22070;SDS011;11200;51.488;6.668;2022-12-18T04:34:34;11.18;;;7.30;;
22070;SDS011;11200;51.488;6.668;2022-12-18T04:36:59;10.73;;;7.25;;
22070;SDS011;11200;51.488;6.668;2022-12-18T04:39:25;9.82;;;6.95;;
22070;SDS011;11200;51.488;6.668;2022-12-18T04:41:51;10.80;;;7.53;;
22070;SDS011;11200;51.488;6.668;2022-12-18T04:44:16;11.80;;;7.72;;
22070;SDS011;11200;51.488;6.668;2022-12-18T04:46:42;11.40;;;7.43;;
22070;SDS011;11200;51.488;6.668;2022-12-18T04:49:08;11.00;;;7.45;;
22070;SDS011;11200;51.488;6.668;2022-12-18T04:51:35;12.23;;;7.68;;
22070;SDS011;11200;51.488;6.668;2022-12-18T04:54:01;10.73;;;7.10;;
22070;SDS011;11200;51.488;6.668;2022-12-18T04:56:27;12.10;;;7.40;;
22070;SDS011;11200;51.488;6.668;2022-12-18T04:58:52;14.07;;;8.00;;
22070;SDS011;11200;51.488;6.668;2022-12-18T05:01:18;10.27;;;7.05;;
22070;SDS011;11200;51.488;6.668;2022-12-18T05:03:43;11.13;;;7.18;;
22070;SDS011;11200;51.488;6.668;2022-12-18T05:06:09;11.18;;;7.18;;
22070;SDS011;11200;51.488;6.668;2022-12-18T05:08:35;11.25;;;7.13;;
22070;SDS011;11200;51.488;6.668;2022-12-18T05:11:04;11.55;;;7.00;;
22070;SDS011;11200;51.488;6.668;2022-12-18T05:13:32;10.77;;;6.85;;
22070;SDS011;11200;51.488;6.668;2022-12-18T05:15:59;12.60;;;7.70;;
22070;SDS011;11200;51.488;6.668;2022-12-18T05:18:25;10.85;;;7.20;;
22070;SDS011;11200;51.488;6.668;2022-12-18T05:20:51;12.48;;;6.82;;
22070;SDS011;11200;51.488;6.668;2022-12-18T05:23:18;10.52;;;6.80;;
22070;SDS011;11200;51.488;6.668;2022-12-18T05:25:51;10.18;;;6.43;;
22070;SDS011;11200;51.488;6.668;2022-12-18T05:28:17;11.40;;;7.13;;
22070;SDS011;11200;51.488;6.668;2022-12-18T05:30:46;10.93;;;6.57;;
22070;SDS011;11200;51.488;6.668;2022-12-18T05:33:16;10.32;;;6.63;;
22070;SDS011;11200;51.488;6.668;2022-12-18T05:35:53;9.90;;;6.88;;
22070;SDS011;11200;51.488;6.668;2022-12-18T05:38:20;11.00;;;7.03;;
22070;SDS011;11200;51.488;6.668;2022-12-18T05:40:47;11.20;;;6.65;;
22070;SDS011;11200;51.488;6.668;2022-12-18T05:43:13;11.13;;;7.32;;
22070;SDS011;11200;51.488;6.668;2022-12-18T05:45:39;11.02;;;7.00;;
22070;SDS011;11200;51.488;6.668;2022-12-18T05:48:05;10.32;;;6.22;;
22070;SDS011;11200;51.488;6.668;2022-12-18T05:50:35;9.68;;;6.22;;
22070;SDS011;11200;51.488;6.668;2022-12-18T05:53:02;10.23;;;6.68;;
22070;SDS011;11200;51.488;6.668;2022-12-18T05:55:29;10.75;;;6.57;;
22070;SDS011;11200;51.488;6.668;2022-12-18T05:57:57;9.65;;;6.07;;
22070;SDS011;11200;51.488;6.668;2022-12-18T06:00:23;9.30;;;6.35;;
22070;SDS011;11200;51.488;6.668;2022-12-18T06:02:49;9.00;;;6.15;;
22070;SDS011;11200;51.488;6.668;2022-12-18T06:05:14;9.23;;;6.40;;
22070;SDS011;11200;51.488;6.668;2022-12-18T06:07:40;8.40;;;5.93;;
22070;SDS011;11200;51.488;6.668;2022-12-18T06:10:05;10.43;;;6.57;;
22070;SDS011;11200;51.488;6.668;2022-12-18T06:12:31;10.15;;;6.43;;
22070;SDS011;11200;51.488;6.668;2022-12-18T06:14:58;8.88;;;6.20;;
22070;SDS011;11200;51.488;6.668;2022-12-18T06:17:27;8.65;;;6.03;;
22070;SDS011;11200;51.488;6.668;2022-12-18T06:19:56;8.63;;;6.00;;
22070;SDS011;11200;51.488;6.668;2022-12-18T06:22:22;9.13;;;6.07;;
22070;SDS011;11200;51.488;6.668;2022-12-18T06:24:48;9.27;;;6.05;;
22070;SDS011;11200;51.488;6.668;2022-12-18T06:27:14;7.82;;;5.53;;
22070;SDS011;11200;51.488;6.668;2022-12-18T06:29:39;8.82;;;5.80;;
22070;SDS011;11200;51.488;6.668;2022-12-18T06:32:05;7.35;;;5.22;;
22070;SDS011;11200;51.488;6.668;2022-12-18T06:34:30;8.65;;;6.20;;
22070;SDS011;11200;51.488;6.668;2022-12-18T06:36:57;7.00;;;5.20;;
22070;SDS011;11200;51.488;6.668;2022-12-18T06:39:23;9.23;;;5.85;;
22070;SDS011;11200;51.488;6.668;2022-12-18T06:41:49;8.52;;;5.63;;
22070;SDS011;11200;51.488;6.668;2022-12-18T06:44:14;8.32;;;6.18;;
22070;SDS011;11200;51.488;6.668;2022-12-18T06:46:40;9.32;;;5.88;;
22070;SDS011;11200;51.488;6.668;2022-12-18T06:49:05;7.60;;;5.28;;
22070;SDS011;11200;51.488;6.668;2022-12-18T06:51:34;7.43;;;5.40;;
22070;SDS011;11200;51.488;6.668;2022-12-18T06:54:00;8.50;;;5.40;;
22070;SDS011;11200;51.488;6.668;2022-12-18T06:56:28;9.55;;;5.57;;
22070;SDS011;11200;51.488;6.668;2022-12-18T06:58:54;8.80;;;6.03;;
22070;SDS011;11200;51.488;6.668;2022-12-18T07:01:20;9.07;;;5.68;;
22070;SDS011;11200;51.488;6.668;2022-12-18T07:03:46;7.97;;;5.32;;
22070;SDS011;11200;51.488;6.668;2022-12-18T07:06:13;8.75;;;5.60;;
22070;SDS011;11200;51.488;6.668;2022-12-18T07:08:44;8.38;;;5.60;;
22070;SDS011;11200;51.488;6.668;2022-12-18T07:11:13;7.85;;;5.32;;
22070;SDS011;11200;51.488;6.668;2022-12-18T07:13:39;7.85;;;5.03;;
22070;SDS011;11200;51.488;6.668;2022-12-18T07:18:35;7.55;;;5.43;;
22070;SDS011;11200;51.488;6.668;2022-12-18T07:21:07;8.60;;;5.60;;
22070;SDS011;11200;51.488;6.668;2022-12-18T07:23:35;8.75;;;5.72;;
22070;SDS011;11200;51.488;6.668;2022-12-18T07:26:03;7.97;;;5.60;;
22070;SDS011;11200;51.488;6.668;2022-12-18T07:28:31;9.20;;;5.85;;
22070;SDS011;11200;51.488;6.668;2022-12-18T07:30:58;8.05;;;5.13;;
22070;SDS011;11200;51.488;6.668;2022-12-18T07:33:26;8.82;;;5.70;;
22070;SDS011;11200;51.488;6.668;2022-12-18T07:35:52;7.47;;;5.05;;
22070;SDS011;11200;51.488;6.668;2022-12-18T07:38:18;8.18;;;5.10;;
22070;SDS011;11200;51.488;6.668;2022-12-18T07:40:43;7.15;;;5.50;;
22070;SDS011;11200;51.488;6.668;2022-12-18T07:43:09;7.18;;;5.30;;
22070;SDS011;11200;51.488;6.668;2022-12-18T07:45:34;8.60;;;5.28;;
22070;SDS011;11200;51.488;6.668;2022-12-18T07:48:00;7.80;;;5.40;;
22070;SDS011;11200;51.488;6.668;2022-12-18T07:50:25;7.85;;;5.07;;
22070;SDS011;11200;51.488;6.668;2022-12-18T07:52:51;7.65;;;5.05;;
22070;SDS011;11200;51.488;6.668;2022-12-18T07:55:16;7.57;;;5.40;;
22070;SDS011;11200;51.488;6.668;2022-12-18T07:57:42;7.97;;;5.05;;
22070;SDS011;11200;51.488;6.668;2022-12-18T08:00:08;7.18;;;4.95;;
22070;SDS011;11200;51.488;6.668;2022-12-18T08:02:34;7.70;;;5.07;;
22070;SDS011;11200;51.488;6.668;2022-12-18T08:04:59;8.07;;;5.68;;
22070;SDS011;11200;51.488;6.668;2022-12-18T08:07:25;7.57;;;5.28;;
22070;SDS011;11200;51.488;6.668;2022-12-18T08:09:50;8.38;;;5.35;;
22070;SDS011;11200;51.488;6.668;2022-12-18T08:12:16;8.05;;;5.53;;
22070;SDS011;11200;51.488;6.668;2022-12-18T08:14:41;9.00;;;6.13;;
22070;SDS011;11200;51.488;6.668;2022-12-18T08:17:07;11.60;;;6.15;;
22070;SDS011;11200;51.488;6.668;2022-12-18T08:19:36;8.27;;;5.78;;
22070;SDS011;11200;51.488;6.668;2022-12-18T08:22:01;9.07;;;5.88;;
22070;SDS011;11200;51.488;6.668;2022-12-18T08:24:27;8.35;;;5.50;;
22070;SDS011;11200;51.488;6.668;2022-12-18T08:26:52;9.20;;;5.88;;
22070;SDS011;11200;51.488;6.668;2022-12-18T08:29:18;9.80;;;5.93;;
22070;SDS011;11200;51.488;6.668;2022-12-18T08:31:46;10.45;;;6.07;;
22070;SDS011;11200;51.488;6.668;2022-12-18T08:34:12;9.18;;;5.60;;
22070;SDS011;11200;51.488;6.668;2022-12-18T08:36:38;9.82;;;5.80;;
22070;SDS011;11200;51.488;6.668;2022-12-18T08:39:04;8.88;;;5.78;;
22070;SDS011;11200;51.488;6.668;2022-12-18T08:41:29;9.05;;;5.88;;
22070;SDS011;11200;51.488;6.668;2022-12-18T08:43:55;8.60;;;5.80;;
22070;SDS011;11200;51.488;6.668;2022-12-18T08:46:40;10.57;;;6.18;;
22070;SDS011;11200;51.488;6.668;2022-12-18T08:49:07;11.00;;;6.60;;
22070;SDS011;11200;51.488;6.668;2022-12-18T08:51:34;9.05;;;6.43;;
22070;SDS011;11200;51.488;6.668;2022-12-18T08:54:01;10.73;;;6.88;;
22070;SDS011;11200;51.488;6.668;2022-12-18T08:56:27;9.85;;;6.65;;
22070;SDS011;11200;51.488;6.668;2022-12-18T08:58:53;8.73;;;6.15;;
22070;SDS011;11200;51.488;6.668;2022-12-18T09:01:19;12.77;;;7.18;;
22070;SDS011;11200;51.488;6.668;2022-12-18T09:03:45;9.75;;;6.82;;
22070;SDS011;11200;51.488;6.668;2022-12-18T09:06:13;11.25;;;6.97;;
22070;SDS011;11200;51.488;6.668;2022-12-18T09:08:43;10.65;;;6.57;;
22070;SDS011;11200;51.488;6.668;2022-12-18T09:11:13;11.10;;;7.03;;
22070;SDS011;11200;51.488;6.668;2022-12-18T09:13:43;10.48;;;6.50;;
22070;SDS011;11200;51.488;6.668;2022-12-18T09:16:09;9.98;;;7.03;;
22070;SDS011;11200;51.488;6.668;2022-12-18T09:18:34;11.32;;;7.25;;
22070;SDS011;11200;51.488;6.668;2022-12-18T09:21:06;11.73;;;6.75;;
22070;SDS011;11200;51.488;6.668;2022-12-18T09:23:33;12.23;;;7.45;;
22070;SDS011;11200;51.488;6.668;2022-12-18T09:25:59;12.30;;;7.38;;
22070;SDS011;11200;51.488;6.668;2022-12-18T09:28:30;11.13;;;7.40;;
22070;SDS011;11200;51.488;6.668;2022-12-18T09:30:56;12.57;;;7.50;;
22070;SDS011;11200;51.488;6.668;2022-12-18T09:33:21;11.82;;;7.43;;
22070;SDS011;11200;51.488;6.668;2022-12-18T09:35:47;12.57;;;7.57;;
22070;SDS011;11200;51.488;6.668;2022-12-18T09:38:17;12.55;;;7.18;;
22070;SDS011;11200;51.488;6.668;2022-12-18T09:40:46;12.27;;;7.80;;
22070;SDS011;11200;51.488;6.668;2022-12-18T09:46:03;11.00;;;7.25;;
22070;SDS011;11200;51.488;6.668;2022-12-18T09:48:46;11.85;;;7.57;;
22070;SDS011;11200;51.488;6.668;2022-12-18T09:51:15;11.55;;;7.78;;
22070;SDS011;11200;51.488;6.668;2022-12-18T09:53:50;12.38;;;7.93;;
22070;SDS011;11200;51.488;6.668;2022-12-18T09:56:20;11.23;;;7.80;;
22070;SDS011;11200;51.488;6.668;2022-12-18T09:58:57;10.52;;;7.22;;
22070;SDS011;11200;51.488;6.668;2022-12-18T10:01:24;11.10;;;7.40;;
22070;SDS011;11200;51.488;6.668;2022-12-18T10:03:52;11.85;;;7.57;;
22070;SDS011;11200;51.488;6.668;2022-12-18T10:06:20;10.25;;;7.53;;
22070;SDS011;11200;51.488;6.668;2022-12-18T10:09:08;10.73;;;7.68;;
22070;SDS011;11200;51.488;6.668;2022-12-18T10:11:48;10.82;;;7.57;;
22070;SDS011;11200;51.488;6.668;2022-12-18T10:14:34;11.90;;;8.18;;
22070;SDS011;11200;51.488;6.668;2022-12-18T10:19:59;11.55;;;7.65;;
22070;SDS011;11200;51.488;6.668;2022-12-18T10:22:42;12.00;;;8.00;;
22070;SDS011;11200;51.488;6.668;2022-12-18T10:27:48;10.50;;;7.22;;
22070;SDS011;11200;51.488;6.668;2022-12-18T10:30:19;10.50;;;7.50;;
22070;SDS011;11200;51.488;6.668;2022-12-18T10:32:46;10.27;;;7.72;;
22070;SDS011;11200;51.488;6.668;2022-12-18T10:35:19;11.00;;;7.65;;
22070;SDS011;11200;51.488;6.668;2022-12-18T10:40:55;13.95;;;8.20;;
22070;SDS011;11200;51.488;6.668;2022-12-18T10:43:23;10.88;;;7.90;;
22070;SDS011;11200;51.488;6.668;2022-12-18T10:45:58;11.32;;;8.05;;
22070;SDS011;11200;51.488;6.668;2022-12-18T10:48:26;12.02;;;8.48;;
22070;SDS011;11200;51.488;6.668;2022-12-18T10:50:52;13.32;;;8.40;;
22070;SDS011;11200;51.488;6.668;2022-12-18T10:53:23;13.27;;;8.30;;
22070;SDS011;11200;51.488;6.668;2022-12-18T10:55:50;12.05;;;7.82;;
22070;SDS011;11200;51.488;6.668;2022-12-18T11:03:59;12.52;;;8.57;;
22070;SDS011;11200;51.488;6.668;2022-12-18T11:06:22;11.15;;;8.02;;
22070;SDS011;11200;51.488;6.668;2022-12-18T11:09:05;12.70;;;8.63;;
22070;SDS011;11200;51.488;6.668;2022-12-18T11:11:51;12.02;;;8.43;;
22070;SDS011;11200;51.488;6.668;2022-12-18T11:16:49;11.98;;;8.43;;
22070;SDS011;11200;51.488;6.668;2022-12-18T11:21:59;12.55;;;8.57;;
22070;SDS011;11200;51.488;6.668;2022-12-18T11:24:31;14.15;;;8.40;;
22070;SDS011;11200;51.488;6.668;2022-12-18T11:26:59;12.48;;;8.57;;
22070;SDS011;11200;51.488;6.668;2022-12-18T11:35:42;13.30;;;8.68;;
22070;SDS011;11200;51.488;6.668;2022-12-18T11:38:02;12.23;;;8.45;;
22070;SDS011;11200;51.488;6.668;2022-12-18T11:40:47;12.00;;;8.45;;
22070;SDS011;11200;51.488;6.668;2022-12-18T11:43:31;14.48;;;8.73;;
22070;SDS011;11200;51.488;6.668;2022-12-18T11:46:00;12.88;;;8.57;;
22070;SDS011;11200;51.488;6.668;2022-12-18T11:48:49;12.88;;;8.93;;
22070;SDS011;11200;51.488;6.668;2022-12-18T11:51:25;14.50;;;9.40;;
22070;SDS011;11200;51.488;6.668;2022-12-18T11:53:58;12.90;;;8.82;;
22070;SDS011;11200;51.488;6.668;2022-12-18T11:56:34;12.05;;;8.70;;
22070;SDS011;11200;51.488;6.668;2022-12-18T12:21:31;13.45;;;9.80;;
22070;SDS011;11200;51.488;6.668;2022-12-18T12:24:10;14.13;;;9.77;;
22070;SDS011;11200;51.488;6.668;2022-12-18T12:40:18;16.55;;;11.13;;
22070;SDS011;11200;51.488;6.668;2022-12-18T12:42:46;15.50;;;10.70;;
22070;SDS011;11200;51.488;6.668;2022-12-18T12:51:21;15.15;;;10.20;;
22070;SDS011;11200;51.488;6.668;2022-12-18T12:53:50;14.90;;;10.48;;
22070;SDS011;11200;51.488;6.668;2022-12-18T12:56:18;15.85;;;10.18;;
22070;SDS011;11200;51.488;6.668;2022-12-18T13:04:12;16.83;;;10.65;;
22070;SDS011;11200;51.488;6.668;2022-12-18T13:09:29;13.82;;;10.38;;
22070;SDS011;11200;51.488;6.668;2022-12-18T13:11:57;14.98;;;9.85;;
22070;SDS011;11200;51.488;6.668;2022-12-18T13:14:47;15.27;;;10.05;;
22070;SDS011;11200;51.488;6.668;2022-12-18T13:19:44;14.45;;;10.23;;
22070;SDS011;11200;51.488;6.668;2022-12-18T13:22:38;15.25;;;10.27;;
22070;SDS011;11200;51.488;6.668;2022-12-18T13:25:37;16.00;;;11.07;;
22070;SDS011;11200;51.488;6.668;2022-12-18T13:38:45;14.85;;;10.73;;
22070;SDS011;11200;51.488;6.668;2022-12-18T13:43:46;15.82;;;10.93;;
22070;SDS011;11200;51.488;6.668;2022-12-18T13:46:18;17.27;;;11.93;;
22070;SDS011;11200;51.488;6.668;2022-12-18T13:48:56;16.13;;;11.15;;
22070;SDS011;11200;51.488;6.668;2022-12-18T13:51:27;16.63;;;11.73;;
22070;SDS011;11200;51.488;6.668;2022-12-18T13:54:57;15.13;;;10.73;;
22070;SDS011;11200;51.488;6.668;2022-12-18T13:56:57;15.30;;;10.77;;
22070;SDS011;11200;51.488;6.668;2022-12-18T13:59:23;17.38;;;11.65;;
22070;SDS011;11200;51.488;6.668;2022-12-18T14:01:52;16.42;;;11.68;;
22070;SDS011;11200;51.488;6.668;2022-12-18T14:04:24;19.65;;;12.00;;
22070;SDS011;11200;51.488;6.668;2022-12-18T14:06:51;17.48;;;11.73;;
22070;SDS011;11200;51.488;6.668;2022-12-18T14:09:30;17.40;;;11.65;;
22070;SDS011;11200;51.488;6.668;2022-12-18T14:11:59;18.10;;;11.88;;
22070;SDS011;11200;51.488;6.668;2022-12-18T14:14:44;18.25;;;12.10;;
22070;SDS011;11200;51.488;6.668;2022-12-18T14:17:12;18.58;;;12.45;;
22070;SDS011;11200;51.488;6.668;2022-12-18T14:19:46;16.23;;;11.38;;
22070;SDS011;11200;51.488;6.668;2022-12-18T14:22:14;17.60;;;11.80;;
22070;SDS011;11200;51.488;6.668;2022-12-18T14:24:44;18.58;;;12.65;;
22070;SDS011;11200;51.488;6.668;2022-12-18T14:27:13;20.08;;;12.68;;
22070;SDS011;11200;51.488;6.668;2022-12-18T14:29:46;18.33;;;12.32;;
22070;SDS011;11200;51.488;6.668;2022-12-18T14:34:45;17.38;;;12.23;;
22070;SDS011;11200;51.488;6.668;2022-12-18T14:37:22;18.70;;;13.07;;
22070;SDS011;11200;51.488;6.668;2022-12-18T14:39:57;21.50;;;12.88;;
22070;SDS011;11200;51.488;6.668;2022-12-18T14:42:30;17.40;;;11.98;;
22070;SDS011;11200;51.488;6.668;2022-12-18T14:48:00;20.42;;;13.43;;
22070;SDS011;11200;51.488;6.668;2022-12-18T14:50:31;22.15;;;13.93;;
22070;SDS011;11200;51.488;6.668;2022-12-18T14:52:57;19.80;;;13.05;;
22070;SDS011;11200;51.488;6.668;2022-12-18T14:55:22;20.55;;;13.60;;
22070;SDS011;11200;51.488;6.668;2022-12-18T14:57:49;20.17;;;13.57;;
22070;SDS011;11200;51.488;6.668;2022-12-18T15:00:18;21.00;;;13.52;;
22070;SDS011;11200;51.488;6.668;2022-12-18T15:02:52;22.08;;;14.35;;
22070;SDS011;11200;51.488;6.668;2022-12-18T15:05:24;23.70;;;14.35;;
22070;SDS011;11200;51.488;6.668;2022-12-18T15:07:54;20.13;;;13.65;;
22070;SDS011;11200;51.488;6.668;2022-12-18T15:10:23;21.65;;;14.32;;
22070;SDS011;11200;51.488;6.668;2022-12-18T15:20:33;21.10;;;14.43;;
22070;SDS011;11200;51.488;6.668;2022-12-18T15:23:12;21.02;;;14.43;;
22070;SDS011;11200;51.488;6.668;2022-12-18T15:25:47;23.65;;;14.60;;
22070;SDS011;11200;51.488;6.668;2022-12-18T15:28:21;22.10;;;13.75;;
22070;SDS011;11200;51.488;6.668;2022-12-18T15:33:39;24.40;;;14.63;;
22070;SDS011;11200;51.488;6.668;2022-12-18T15:36:15;21.05;;;14.25;;
22070;SDS011;11200;51.488;6.668;2022-12-18T15:38:46;20.50;;;13.85;;
22070;SDS011;11200;51.488;6.668;2022-12-18T15:41:13;21.42;;;14.90;;
22070;SDS011;11200;51.488;6.668;2022-12-18T15:43:43;21.48;;;14.38;;
22070;SDS011;11200;51.488;6.668;2022-12-18T15:46:13;25.63;;;15.68;;
22070;SDS011;11200;51.488;6.668;2022-12-18T15:48:42;20.83;;;14.82;;
22070;SDS011;11200;51.488;6.668;2022-12-18T15:51:12;22.85;;;15.13;;
22070;SDS011;11200;51.488;6.668;2022-12-18T15:53:47;22.23;;;15.52;;
22070;SDS011;11200;51.488;6.668;2022-12-18T15:56:15;22.83;;;14.93;;
22070;SDS011;11200;51.488;6.668;2022-12-18T15:59:00;25.27;;;15.50;;
22070;SDS011;11200;51.488;6.668;2022-12-18T16:01:27;22.90;;;15.13;;
22070;SDS011;11200;51.488;6.668;2022-12-18T16:03:55;24.25;;;16.38;;
22070;SDS011;11200;51.488;6.668;2022-12-18T16:06:24;26.33;;;17.02;;
22070;SDS011;11200;51.488;6.668;2022-12-18T16:08:49;22.90;;;15.23;;
22070;SDS011;11200;51.488;6.668;2022-12-18T16:11:23;27.05;;;16.83;;
22070;SDS011;11200;51.488;6.668;2022-12-18T16:14:39;26.15;;;16.50;;
22070;SDS011;11200;51.488;6.668;2022-12-18T16:16:59;23.25;;;15.45;;
22070;SDS011;11200;51.488;6.668;2022-12-18T16:19:27;25.38;;;16.60;;
22070;SDS011;11200;51.488;6.668;2022-12-18T16:21:53;24.80;;;16.00;;
22070;SDS011;11200;51.488;6.668;2022-12-18T16:24:21;24.15;;;16.40;;
22070;SDS011;11200;51.488;6.668;2022-12-18T16:26:49;22.75;;;16.02;;
22070;SDS011;11200;51.488;6.668;2022-12-18T16:29:16;27.08;;;16.33;;
22070;SDS011;11200;51.488;6.668;2022-12-18T16:31:43;25.83;;;17.02;;
22070;SDS011;11200;51.488;6.668;2022-12-18T16:34:23;26.40;;;16.85;;
22070;SDS011;11200;51.488;6.668;2022-12-18T16:36:55;25.30;;;16.55;;
22070;SDS011;11200;51.488;6.668;2022-12-18T16:39:28;25.65;;;15.90;;
22070;SDS011;11200;51.488;6.668;2022-12-18T16:41:55;26.45;;;17.02;;
22070;SDS011;11200;51.488;6.668;2022-12-18T16:44:21;26.67;;;17.58;;
22070;SDS011;11200;51.488;6.668;2022-12-18T16:46:47;25.80;;;16.60;;
22070;SDS011;11200;51.488;6.668;2022-12-18T16:49:16;26.50;;;17.23;;
22070;SDS011;11200;51.488;6.668;2022-12-18T16:51:42;28.88;;;17.50;;
22070;SDS011;11200;51.488;6.668;2022-12-18T16:54:09;26.27;;;17.17;;
22070;SDS011;11200;51.488;6.668;2022-12-18T16:56:34;25.85;;;17.40;;
22070;SDS011;11200;51.488;6.668;2022-12-18T16:59:00;26.70;;;17.30;;
22070;SDS011;11200;51.488;6.668;2022-12-18T17:01:28;25.33;;;17.30;;
22070;SDS011;11200;51.488;6.668;2022-12-18T17:06:27;26.20;;;17.30;;